Time;durP1;ratioP1;P1;durP2;ratioP2;P2;SDS_P1;SDS_P2;PMS_P1;PMS_P2;Temp;Humidity;BMP_temperature;BMP_pressure;BME280_temperature;BME280_humidity;BME280_pressure;Samples;Min_cycle;Max_cycle;Signal;HPM_P1;HPM_P2
2024/01/24 00:00:14;;;;;;;0.20;0.20;;;;;;;-3.02;84.84;97888.25;4986941;28;20057;-59
2024/01/24 00:02:41;;;;;;;0.15;0.15;;;;;;;-2.95;85.28;97905.91;4988820;28;20437;-59
2024/01/24 00:05:08;;;;;;;0.10;0.10;;;;;;;-2.97;85.54;97918.88;5006644;28;20061;-59
2024/01/24 00:07:35;;;;;;;0.10;0.10;;;;;;;-3.40;85.99;97871.22;5006799;28;20081;-57
2024/01/24 00:10:02;;;;;;;0.20;0.20;;;;;;;-3.18;86.23;97898.97;5006496;28;20060;-58
2024/01/24 00:12:29;;;;;;;0.17;0.17;;;;;;;-3.23;86.55;97868.38;5005935;28;20068;-58
2024/01/24 00:14:56;;;;;;;0.10;0.10;;;;;;;-3.13;86.24;97868.44;5004507;28;20049;-58
2024/01/24 00:17:23;;;;;;;0.10;0.10;;;;;;;-2.58;86.13;97924.78;5004905;28;20054;-59
2024/01/24 00:19:50;;;;;;;0.13;0.13;;;;;;;-2.75;86.71;97908.69;5006247;28;20077;-58
2024/01/24 00:22:16;;;;;;;0.20;0.20;;;;;;;-3.09;85.92;97864.09;5005558;28;20507;-58
2024/01/24 00:24:43;;;;;;;0.13;0.13;;;;;;;-2.74;85.27;97926.63;5006247;28;20591;-58
2024/01/24 00:27:11;;;;;;;0.10;0.10;;;;;;;-3.56;84.65;97792.91;5004400;28;20061;-58
2024/01/24 00:29:38;;;;;;;0.10;0.10;;;;;;;-2.97;85.23;97897.22;5004521;28;20053;-59
2024/01/24 00:32:05;;;;;;;0.20;0.20;;;;;;;-3.23;84.65;97852.09;5006001;28;20060;-59
2024/01/24 00:34:31;;;;;;;0.10;0.10;;;;;;;-2.78;84.72;97914.66;5005275;28;20173;-58
2024/01/24 00:36:58;;;;;;;0.20;0.20;;;;;;;-2.85;83.80;97897.81;5005761;28;20131;-58
2024/01/24 00:39:25;;;;;;;0.10;0.10;;;;;;;-2.78;83.12;97920.06;5005437;28;20072;-59
2024/01/24 00:41:53;;;;;;;0.10;0.10;;;;;;;-2.88;82.93;97930.88;5005536;28;20622;-58
2024/01/24 00:44:19;;;;;;;0.20;0.20;;;;;;;-3.02;83.48;97929.72;5005504;28;20057;-58
2024/01/24 00:46:46;;;;;;;0.10;0.10;;;;;;;-3.02;83.84;97929.72;5005259;28;20054;-58
2024/01/24 00:49:13;;;;;;;0.20;0.20;;;;;;;-3.08;84.57;97925.31;5003981;28;20046;-59
2024/01/24 00:51:40;;;;;;;0.10;0.10;;;;;;;-3.07;83.57;97926.97;5005495;28;20085;-59
2024/01/24 00:54:06;;;;;;;0.10;0.10;;;;;;;-3.06;83.84;97917.75;5005338;28;20053;-61
2024/01/24 00:56:33;;;;;;;0.10;0.10;;;;;;;-3.11;84.16;97923.16;5004233;28;20061;-59
2024/01/24 00:59:00;;;;;;;0.10;0.10;;;;;;;-3.15;84.90;97919.34;5005694;28;20050;-58
2024/01/24 01:01:27;;;;;;;0.10;0.10;;;;;;;-3.03;84.39;97933.50;5005204;28;20049;-58
2024/01/24 01:03:54;;;;;;;0.10;0.10;;;;;;;-3.07;83.69;97926.97;5003883;28;20046;-58
2024/01/24 01:06:22;;;;;;;0.10;0.10;;;;;;;-3.02;84.26;97924.31;5004583;28;20042;-58
2024/01/24 01:08:49;;;;;;;0.20;0.20;;;;;;;-3.05;85.00;97930.22;5005010;28;20057;-59
2024/01/24 01:11:17;;;;;;;0.10;0.10;;;;;;;-3.12;84.77;97932.34;5004525;28;20508;-58
2024/01/24 01:13:44;;;;;;;0.20;0.20;;;;;;;-3.12;84.78;97924.22;5003877;28;20045;-58
2024/01/24 01:16:11;;;;;;;0.10;0.10;;;;;;;-3.09;85.57;97923.69;5004878;28;20042;-59
2024/01/24 01:18:37;;;;;;;0.20;0.20;;;;;;;-3.08;84.49;97926.16;5004455;28;20061;-58
2024/01/24 01:21:04;;;;;;;0.10;0.10;;;;;;;-3.20;85.35;97916.59;5004769;28;20053;-58
2024/01/24 01:23:31;;;;;;;0.10;0.10;;;;;;;-3.07;85.82;97927.78;5004762;28;20137;-60
2024/01/24 01:25:58;;;;;;;0.10;0.10;;;;;;;-3.14;86.17;97927.19;5004751;28;20081;-58
2024/01/24 01:28:24;;;;;;;0.17;0.17;;;;;;;-3.19;87.02;97913.63;5004953;28;20053;-58
2024/01/24 01:30:51;;;;;;;0.10;0.10;;;;;;;-3.12;86.80;97914.22;5003488;28;20463;-58
2024/01/24 01:33:18;;;;;;;0.10;0.10;;;;;;;-3.25;87.20;97908.44;5004832;28;20172;-58
2024/01/24 01:35:45;;;;;;;0.20;0.20;;;;;;;-3.30;86.54;97900.25;5003223;28;20053;-57
2024/01/24 01:38:14;;;;;;;0.10;0.10;;;;;;;-3.14;84.74;97910.13;5003314;28;20057;-60
2024/01/24 01:40:41;;;;;;;0.10;0.10;;;;;;;-3.97;84.89;97834.28;5004640;28;20049;-59
2024/01/24 01:43:14;;;;;;;0.10;0.10;;;;;;;-3.40;86.03;97916.47;5004546;28;20441;-58
2024/01/24 01:45:42;;;;;;;0.10;0.10;;;;;;;-3.36;85.63;97907.56;5004122;28;20540;-60
2024/01/24 01:48:10;;;;;;;0.10;0.10;;;;;;;-3.32;85.26;97929.53;5003529;28;20049;-58
2024/01/24 01:50:38;;;;;;;0.10;0.10;;;;;;;-3.33;85.62;97917.03;5004275;28;20061;-58
2024/01/24 01:53:07;;;;;;;0.10;0.10;;;;;;;-3.29;85.80;97907.34;5004623;28;20133;-59
2024/01/24 01:55:35;;;;;;;0.17;0.17;;;;;;;-3.26;85.42;97902.19;5004324;28;20359;-59
2024/01/24 01:58:02;;;;;;;0.20;0.20;;;;;;;-3.39;85.81;97894.53;5004436;28;20049;-59
2024/01/24 02:00:30;;;;;;;0.10;0.10;;;;;;;-3.25;85.32;97917.38;5002632;28;20054;-59
2024/01/24 02:02:57;;;;;;;0.13;0.13;;;;;;;-3.57;85.16;97861.63;5004382;28;20084;-57
2024/01/24 02:05:24;;;;;;;0.10;0.10;;;;;;;-3.28;85.38;97911.66;5004170;28;20057;-59
2024/01/24 02:07:51;;;;;;;0.20;0.20;;;;;;;-3.48;85.63;97860.88;5004670;28;20552;-57
2024/01/24 02:10:18;;;;;;;0.10;0.10;;;;;;;-3.18;85.65;97903.59;5003941;28;20054;-58
2024/01/24 02:12:44;;;;;;;0.10;0.10;;;;;;;-3.26;86.20;97906.81;5003685;28;20065;-59
2024/01/24 02:15:11;;;;;;;0.20;0.20;;;;;;;-3.67;86.28;97861.56;5019196;28;20057;-58
2024/01/24 02:17:38;;;;;;;0.20;0.20;;;;;;;-3.54;85.55;97855.72;5004447;28;20140;-58
2024/01/24 02:20:09;;;;;;;0.20;0.20;;;;;;;-3.14;85.09;97920.97;5002662;28;20089;-58
2024/01/24 02:22:37;;;;;;;0.10;0.10;;;;;;;-3.21;85.23;97910.34;5004383;28;20057;-58
2024/01/24 02:25:04;;;;;;;0.10;0.10;;;;;;;-3.27;85.13;97910.56;5004057;28;20060;-57
2024/01/24 02:27:31;;;;;;;0.10;0.10;;;;;;;-3.27;84.96;97905.16;5004438;28;20049;-60
2024/01/24 02:29:58;;;;;;;0.10;0.10;;;;;;;-3.69;85.27;97815.00;5004422;28;20438;-58
2024/01/24 02:32:24;;;;;;;0.10;0.10;;;;;;;-3.25;85.40;97908.44;5002790;28;20057;-58
2024/01/24 02:34:51;;;;;;;0.10;0.10;;;;;;;-3.46;87.39;97906.66;5003540;28;20054;-59
2024/01/24 02:37:19;;;;;;;0.15;0.15;;;;;;;-3.56;87.22;97866.81;5003669;28;20054;-58
2024/01/24 02:39:47;;;;;;;0.10;0.10;;;;;;;-3.84;89.49;97931.28;5004107;28;20088;-58
2024/01/24 02:42:14;;;;;;;0.10;0.10;;;;;;;-4.32;91.93;97928.59;5003841;28;20112;-59
2024/01/24 02:44:41;;;;;;;0.13;0.13;;;;;;;-4.33;92.36;97921.56;5004283;28;20054;-58
2024/01/24 02:47:08;;;;;;;0.17;0.17;;;;;;;-4.62;91.99;97838.00;5003929;28;20041;-58
2024/01/24 02:49:35;;;;;;;0.10;0.10;;;;;;;-3.90;91.97;97933.09;5002306;28;20170;-60
2024/01/24 02:52:03;;;;;;;0.10;0.10;;;;;;;-3.77;89.46;97937.28;5002437;28;20149;-58
2024/01/24 02:54:30;;;;;;;0.20;0.20;;;;;;;-3.78;88.62;97935.66;5003834;28;20340;-58
2024/01/24 02:56:56;;;;;;;0.10;0.10;;;;;;;-3.85;88.76;97929.63;5003711;28;20509;-57
2024/01/24 02:59:24;;;;;;;0.10;0.10;;;;;;;-3.73;88.04;97916.75;5003496;28;20136;-58
2024/01/24 03:01:51;;;;;;;0.10;0.10;;;;;;;-3.76;89.02;97938.91;5002071;28;20060;-59
2024/01/24 03:04:18;;;;;;;0.10;0.10;;;;;;;-4.02;88.93;97885.63;5002248;28;20049;-58
2024/01/24 03:06:45;;;;;;;0.10;0.10;;;;;;;-3.66;88.69;97917.34;5003923;28;20143;-57
2024/01/24 03:09:13;;;;;;;0.10;0.10;;;;;;;-4.14;87.68;97817.38;5003672;28;20061;-58
2024/01/24 03:11:40;;;;;;;0.20;0.20;;;;;;;-3.66;87.13;97922.75;5004469;28;20058;-59
2024/01/24 03:14:06;;;;;;;0.20;0.20;;;;;;;-4.13;87.97;97846.03;5007250;28;20054;-57
2024/01/24 03:16:34;;;;;;;0.13;0.13;;;;;;;-3.56;87.69;97929.09;5007259;28;20049;-57
2024/01/24 03:19:01;;;;;;;0.10;0.10;;;;;;;-3.61;87.68;97888.44;5007370;28;20095;-58
2024/01/24 03:21:28;;;;;;;0.10;0.10;;;;;;;-3.55;87.42;97897.38;5005852;28;20160;-58
2024/01/24 03:23:55;;;;;;;0.10;0.10;;;;;;;-3.36;86.96;97922.97;5007055;28;20058;-59
2024/01/24 03:26:22;;;;;;;0.10;0.10;;;;;;;-3.42;87.61;97924.84;5007279;28;20050;-59
2024/01/24 03:28:48;;;;;;;0.20;0.20;;;;;;;-4.33;86.70;97775.56;5006945;28;20487;-60
2024/01/24 03:31:15;;;;;;;0.10;0.10;;;;;;;-4.47;85.98;97768.97;5006740;28;20054;-59
2024/01/24 03:33:42;;;;;;;0.10;0.10;;;;;;;-3.59;87.06;97907.13;5007086;28;20089;-58
2024/01/24 03:36:09;;;;;;;0.10;0.10;;;;;;;-3.55;87.22;97921.75;5006950;28;20076;-59
2024/01/24 03:38:36;;;;;;;0.10;0.10;;;;;;;-3.84;87.46;97850.88;5007031;28;20574;-58
2024/01/24 03:41:03;;;;;;;0.10;0.10;;;;;;;-5.09;86.58;97631.69;5005511;28;20065;-59
2024/01/24 03:43:29;;;;;;;0.10;0.10;;;;;;;-3.39;86.95;97916.19;5006866;28;20046;-59
2024/01/24 03:45:56;;;;;;;0.10;0.10;;;;;;;-3.41;87.67;97915.63;5006651;28;21361;-58
2024/01/24 03:48:23;;;;;;;0.17;0.17;;;;;;;-3.45;88.36;97897.47;5005177;28;20053;-59
2024/01/24 03:50:50;;;;;;;0.10;0.10;;;;;;;-3.33;88.51;97917.03;5005080;28;20065;-59
2024/01/24 03:53:16;;;;;;;0.17;0.17;;;;;;;-4.12;90.35;97853.91;5005109;28;20046;-58
2024/01/24 03:55:43;;;;;;;0.15;0.15;;;;;;;-3.41;90.00;97937.31;5006494;28;20046;-59
2024/01/24 03:58:10;;;;;;;0.10;0.10;;;;;;;-3.47;88.92;97932.94;5006475;28;20085;-58
2024/01/24 04:00:37;;;;;;;0.10;0.10;;;;;;;-3.68;88.84;97897.81;5006641;28;20050;-57
2024/01/24 04:03:04;;;;;;;0.10;0.10;;;;;;;-3.38;89.04;97919.72;5006462;28;20060;-58
2024/01/24 04:05:32;;;;;;;0.17;0.17;;;;;;;-3.37;88.77;97921.34;5006088;28;20054;-57
2024/01/24 04:07:58;;;;;;;0.10;0.10;;;;;;;-3.54;88.28;97910.66;5005008;28;20602;-58
2024/01/24 04:10:25;;;;;;;0.10;0.10;;;;;;;-3.24;88.49;97910.88;5004684;28;20075;-57
2024/01/24 04:12:52;;;;;;;0.20;0.20;;;;;;;-3.50;88.28;97883.88;5004596;28;20064;-58
2024/01/24 04:15:19;;;;;;;0.10;0.10;;;;;;;-3.27;88.17;97894.31;5006074;28;20145;-58
2024/01/24 04:17:45;;;;;;;0.10;0.10;;;;;;;-3.19;88.72;97926.34;5006383;28;20061;-57
2024/01/24 04:20:13;;;;;;;0.20;0.20;;;;;;;-3.12;88.97;97924.22;5004449;28;20326;-58
2024/01/24 04:22:40;;;;;;;0.20;0.20;;;;;;;-3.10;88.10;97922.09;5005864;28;20054;-58
2024/01/24 04:25:07;;;;;;;0.10;0.10;;;;;;;-2.85;86.02;97935.78;5006006;28;20149;-58
2024/01/24 04:27:34;;;;;;;0.13;0.13;;;;;;;-2.99;85.78;97956.28;5004382;28;20477;-58
2024/01/24 04:30:02;;;;;;;0.20;0.20;;;;;;;-3.11;85.93;97923.97;5006514;28;20054;-57
2024/01/24 04:32:29;;;;;;;0.10;0.10;;;;;;;-4.04;86.71;97868.84;5005877;28;20049;-59
2024/01/24 04:34:56;;;;;;;0.20;0.20;;;;;;;-4.47;87.00;97833.84;5004307;28;20054;-60
2024/01/24 04:37:24;;;;;;;0.10;0.10;;;;;;;-3.43;87.68;97938.66;5005666;28;20056;-60
2024/01/24 04:39:51;;;;;;;0.20;0.20;;;;;;;-3.35;87.26;97946.28;5004196;28;20053;-58
2024/01/24 04:42:18;;;;;;;0.10;0.10;;;;;;;-3.39;86.81;97939.75;5003958;28;20115;-61
2024/01/24 04:44:45;;;;;;;0.10;0.10;;;;;;;-3.24;86.54;97975.88;4993918;28;20049;-61
2024/01/24 04:47:15;;;;;;;0.10;0.10;;;;;;;-3.35;86.08;97957.94;5004309;28;20097;-59
2024/01/24 04:49:42;;;;;;;0.10;0.10;;;;;;;-3.15;85.27;97968.09;5004399;28;20046;-58
2024/01/24 04:52:12;;;;;;;0.10;0.10;;;;;;;-3.10;84.84;97957.31;5005362;28;20509;-59
2024/01/24 04:54:41;;;;;;;0.10;0.10;;;;;;;-3.36;86.17;97950.88;5005579;28;20065;-58
2024/01/24 04:57:08;;;;;;;0.20;0.20;;;;;;;-3.21;85.67;97964.53;5005872;28;20085;-59
2024/01/24 04:59:35;;;;;;;0.20;0.20;;;;;;;-3.98;85.80;97865.13;5004008;28;20104;-59
2024/01/24 05:02:15;;;;;;;0.10;0.10;;;;;;;-3.33;85.94;97995.59;5005126;28;20432;-59
2024/01/24 05:04:42;;;;;;;0.20;0.20;;;;;;;-3.33;86.01;97973.91;5005590;28;20079;-58
2024/01/24 05:07:09;;;;;;;0.10;0.10;;;;;;;-3.31;86.16;97969.06;5005306;28;20053;-58
2024/01/24 05:09:36;;;;;;;0.20;0.20;;;;;;;-3.68;86.31;97914.06;5036526;28;20120;-60
2024/01/24 05:12:03;;;;;;;0.10;0.10;;;;;;;-3.35;86.63;97965.25;5004752;28;20467;-58
2024/01/24 05:14:30;;;;;;;0.10;0.10;;;;;;;-3.20;85.80;97987.03;5005407;28;20539;-58
2024/01/24 05:16:57;;;;;;;0.10;0.10;;;;;;;-3.36;85.73;97982.56;5005223;28;20052;-59
2024/01/24 05:19:24;;;;;;;0.10;0.10;;;;;;;-3.56;86.80;97969.69;5005331;28;20405;-59
2024/01/24 05:21:50;;;;;;;0.10;0.10;;;;;;;-3.26;86.06;97993.47;5005052;28;20086;-57
2024/01/24 05:24:17;;;;;;;0.10;0.10;;;;;;;-3.41;86.06;98006.88;5003580;28;20057;-59
2024/01/24 05:26:46;;;;;;;0.20;0.20;;;;;;;-4.04;86.47;97925.66;5003358;28;20136;-61
2024/01/24 05:29:13;;;;;;;0.10;0.10;;;;;;;-4.05;86.99;97924.03;5004942;28;20072;-58
2024/01/24 05:31:40;;;;;;;0.10;0.10;;;;;;;-3.74;86.80;97975.47;5003575;28;20049;-57
2024/01/24 05:34:08;;;;;;;0.10;0.10;;;;;;;-3.45;86.55;98011.19;5003991;28;20054;-60
2024/01/24 05:36:35;;;;;;;0.10;0.10;;;;;;;-3.76;86.27;97938.91;5004335;28;20501;-58
2024/01/24 05:39:06;;;;;;;0.20;0.20;;;;;;;-4.04;85.72;97895.88;4995513;28;20543;-58
2024/01/24 05:41:35;;;;;;;0.10;0.10;;;;;;;-3.37;85.83;97997.19;4983922;28;20135;-59
2024/01/24 05:44:02;;;;;;;0.20;0.20;;;;;;;-3.23;85.33;98009.22;4985266;28;20137;-58
2024/01/24 05:46:30;;;;;;;0.10;0.10;;;;;;;-3.19;85.69;98007.59;4983396;28;20053;-58
2024/01/24 05:48:56;;;;;;;0.15;0.15;;;;;;;-3.64;86.12;97936.84;4999295;28;20050;-59
2024/01/24 05:51:24;;;;;;;0.10;0.10;;;;;;;-3.14;86.66;98013.91;5004020;28;20111;-57
2024/01/24 05:53:50;;;;;;;0.10;0.10;;;;;;;-3.45;86.87;97938.09;5004458;28;20060;-57
2024/01/24 05:56:17;;;;;;;0.10;0.10;;;;;;;-3.00;86.65;97997.19;5006432;28;20092;-57
2024/01/24 05:58:44;;;;;;;0.10;0.10;;;;;;;-3.74;87.19;97877.22;5004420;28;20050;-57
2024/01/24 06:01:11;;;;;;;0.10;0.10;;;;;;;-2.89;87.00;97994.28;5003801;28;20505;-58
2024/01/24 06:03:40;;;;;;;0.17;0.17;;;;;;;-2.90;87.86;97998.06;5002351;28;20716;-58
2024/01/24 06:06:07;;;;;;;0.10;0.10;;;;;;;-2.91;87.74;97977.47;5003910;28;20501;-57
2024/01/24 06:08:34;;;;;;;0.10;0.10;;;;;;;-2.67;87.21;98003.09;5003943;28;20076;-57
2024/01/24 06:11:01;;;;;;;0.10;0.10;;;;;;;-2.66;87.26;97993.06;5003697;28;20422;-58
2024/01/24 06:13:28;;;;;;;0.13;0.13;;;;;;;-3.43;87.65;98009.06;5004177;28;20129;-60
2024/01/24 06:15:56;;;;;;;0.20;0.20;;;;;;;-4.08;92.14;98016.50;5003724;28;20830;-56
2024/01/24 06:18:23;;;;;;;0.10;0.10;;;;;;;-3.60;90.90;98030.00;5003991;28;20064;-57
2024/01/24 06:20:49;;;;;;;0.10;0.10;;;;;;;-3.57;90.10;98018.66;5004048;28;20050;-56
2024/01/24 06:23:16;;;;;;;0.20;0.20;;;;;;;-3.43;88.98;98036.13;5003749;28;20065;-58
2024/01/24 06:25:43;;;;;;;0.10;0.10;;;;;;;-3.17;88.71;98035.25;5002145;28;20057;-57
2024/01/24 06:28:10;;;;;;;0.13;0.13;;;;;;;-3.02;87.06;98043.53;5003846;28;20049;-57
2024/01/24 06:30:36;;;;;;;0.20;0.20;;;;;;;-2.92;86.89;98043.59;5003730;28;20049;-57
2024/01/24 06:33:03;;;;;;;0.20;0.20;;;;;;;-2.83;87.58;98052.88;5003946;28;20084;-56
2024/01/24 06:35:33;;;;;;;0.20;0.20;;;;;;;-2.69;87.28;98021.53;5002203;28;20081;-57
2024/01/24 06:38:01;;;;;;;0.20;0.20;;;;;;;-2.40;86.78;98035.53;5002193;28;20056;-57
2024/01/24 06:40:28;;;;;;;0.20;0.20;;;;;;;-2.22;86.61;98030.47;5003562;28;20462;-56
2024/01/24 06:42:54;;;;;;;0.20;0.20;;;;;;;-2.02;86.73;98027.81;5002083;28;20053;-56
2024/01/24 06:45:21;;;;;;;0.20;0.20;;;;;;;-1.85;87.00;98014.84;5004868;28;20068;-57
2024/01/24 06:47:48;;;;;;;0.15;0.15;;;;;;;-1.46;86.25;98025.25;5008024;28;20050;-58
2024/01/24 06:50:17;;;;;;;0.20;0.20;;;;;;;-1.22;84.59;98037.22;5007707;28;20061;-58
2024/01/24 06:52:45;;;;;;;0.17;0.17;;;;;;;-1.59;84.27;97967.66;5006068;28;20108;-58
2024/01/24 06:55:13;;;;;;;0.20;0.20;;;;;;;-0.87;84.15;98021.72;5007122;28;20492;-58
2024/01/24 06:57:40;;;;;;;0.20;0.20;;;;;;;-0.68;83.16;98013.81;5039196;28;20057;-57
2024/01/24 07:00:09;;;;;;;0.20;0.20;;;;;;;-0.43;82.46;98014.56;5007453;28;20088;-58
2024/01/24 07:02:37;;;;;;;0.20;0.20;;;;;;;-0.69;82.46;97965.94;5039043;28;21886;-57
2024/01/24 07:05:05;;;;;;;0.20;0.20;;;;;;;-0.70;81.96;97950.72;4991278;28;20053;-57
2024/01/24 07:07:32;;;;;;;0.20;0.20;;;;;;;0.07;82.18;98008.13;4987726;28;20048;-57
2024/01/24 07:09:59;;;;;;;0.20;0.20;;;;;;;0.24;81.53;98002.34;4997620;28;20049;-62
2024/01/24 07:12:26;;;;;;;0.20;0.20;;;;;;;0.43;80.99;98001.38;5004159;28;20085;-59
2024/01/24 07:14:53;;;;;;;0.20;0.20;;;;;;;0.67;79.96;98012.41;5002796;28;20062;-62
2024/01/24 07:17:20;;;;;;;0.20;0.20;;;;;;;0.69;78.38;98027.41;5005332;28;20049;-61
2024/01/24 07:19:47;;;;;;;0.20;0.20;;;;;;;0.53;79.71;98011.41;5003308;28;20462;-57
2024/01/24 07:22:15;;;;;;;0.20;0.20;;;;;;;0.70;80.35;98029.00;5003799;28;20058;-61
2024/01/24 07:24:46;;;;;;;0.20;0.20;;;;;;;0.90;79.27;98039.78;5003643;28;20584;-58
2024/01/24 07:27:13;;;;;;;0.20;0.20;;;;;;;1.06;78.21;98010.47;5005066;28;20084;-57
2024/01/24 07:29:40;;;;;;;0.20;0.20;;;;;;;1.27;77.29;98040.03;4987982;28;20073;-59
2024/01/24 07:32:07;;;;;;;0.20;0.20;;;;;;;1.25;76.56;98025.84;4985911;28;20046;-61
2024/01/24 07:34:35;;;;;;;0.20;0.20;;;;;;;1.59;76.13;98025.81;4986189;28;20129;-58
2024/01/24 07:37:03;;;;;;;0.20;0.20;;;;;;;1.66;75.94;98009.06;4985271;28;20058;-59
2024/01/24 07:39:30;;;;;;;0.20;0.20;;;;;;;2.03;75.67;98033.78;4985182;28;20069;-61
2024/01/24 07:41:57;;;;;;;0.20;0.20;;;;;;;2.28;74.47;98028.81;4986359;28;20523;-59
2024/01/24 07:44:24;;;;;;;0.20;0.20;;;;;;;1.84;73.96;97929.09;4986494;28;20124;-56
2024/01/24 07:46:51;;;;;;;0.20;0.20;;;;;;;2.73;72.93;98033.66;4985266;28;20058;-57
2024/01/24 07:49:18;;;;;;;0.20;0.20;;;;;;;2.96;72.28;98045.63;4983631;28;20055;-58
2024/01/24 07:51:48;;;;;;;0.20;0.20;;;;;;;3.01;70.79;98015.44;4985831;28;20069;-61
2024/01/24 07:54:18;;;;;;;0.20;0.20;;;;;;;3.18;69.88;98042.28;4986120;28;20564;-57
2024/01/24 07:56:45;;;;;;;0.20;0.20;;;;;;;3.26;69.30;98047.88;4983457;28;20050;-61
2024/01/24 07:59:15;;;;;;;0.20;0.20;;;;;;;3.27;68.78;98013.09;4985300;28;20532;-57
2024/01/24 08:01:46;;;;;;;0.20;0.20;;;;;;;3.37;70.85;98041.13;4986116;28;20054;-61
2024/01/24 08:04:14;;;;;;;0.20;0.20;;;;;;;3.56;70.77;98022.72;4985336;28;20094;-59
2024/01/24 08:06:41;;;;;;;0.20;0.20;;;;;;;3.73;69.82;98038.59;4985802;28;20050;-58
2024/01/24 08:09:08;;;;;;;0.30;0.30;;;;;;;3.89;68.70;98026.22;4986090;28;20136;-58
2024/01/24 08:11:39;;;;;;;0.28;0.28;;;;;;;4.11;68.49;98056.50;4985933;28;20595;-58
2024/01/24 08:14:06;;;;;;;0.20;0.20;;;;;;;4.22;66.60;98047.75;4983994;28;20074;-58
2024/01/24 08:16:33;;;;;;;0.22;0.22;;;;;;;4.29;65.73;98015.25;4986373;28;20057;-59
2024/01/24 08:19:00;;;;;;;0.30;0.30;;;;;;;4.42;66.04;98091.22;4985541;28;20514;-58
2024/01/24 08:21:28;;;;;;;0.30;0.30;;;;;;;4.69;65.65;98051.97;4984728;28;20433;-58
2024/01/24 08:23:55;;;;;;;0.20;0.20;;;;;;;4.78;64.88;98057.53;4980288;28;20050;-60
2024/01/24 08:26:22;;;;;;;0.30;0.30;;;;;;;4.34;63.98;97959.47;4985278;28;20506;-56
2024/01/24 08:28:48;;;;;;;0.20;0.20;;;;;;;4.88;64.46;98038.09;4982661;28;20046;-57
2024/01/24 08:31:15;;;;;;;0.30;0.30;;;;;;;5.18;64.41;98053.88;4983537;28;20077;-63
2024/01/24 08:33:42;;;;;;;0.30;0.30;;;;;;;4.63;63.49;98001.88;4982535;28;20548;-63
2024/01/24 08:36:10;;;;;;;0.30;0.30;;;;;;;5.22;64.33;98066.66;4985116;28;20046;-59
2024/01/24 08:38:36;;;;;;;0.30;0.30;;;;;;;5.45;63.58;98070.25;4985880;28;20069;-60
2024/01/24 08:41:04;;;;;;;0.30;0.30;;;;;;;5.64;64.21;98046.91;4984935;28;20062;-60
2024/01/24 08:43:30;;;;;;;0.40;0.40;;;;;;;5.95;62.71;98066.22;4985039;28;20533;-58
2024/01/24 08:45:57;;;;;;;0.30;0.30;;;;;;;6.14;60.91;98066.81;4984800;28;20050;-61
2024/01/24 08:48:24;;;;;;;0.40;0.40;;;;;;;6.36;61.72;98086.00;4985053;28;20057;-58
2024/01/24 08:50:52;;;;;;;0.40;0.40;;;;;;;6.50;60.67;98063.84;4984983;28;20046;-62
2024/01/24 08:53:18;;;;;;;0.40;0.40;;;;;;;6.74;62.03;98065.06;4985601;28;20097;-62
2024/01/24 08:55:45;;;;;;;0.40;0.40;;;;;;;6.50;61.92;98001.38;4983350;28;20100;-61
2024/01/24 08:58:12;;;;;;;0.35;0.35;;;;;;;6.89;61.20;98061.06;4979774;28;20568;-58
2024/01/24 09:00:39;;;;;;;0.40;0.40;;;;;;;6.92;60.96;98044.72;4984868;28;20101;-58
2024/01/24 09:03:06;;;;;;;0.40;0.40;;;;;;;7.10;60.87;98062.84;4982737;28;20077;-60
2024/01/24 09:05:33;;;;;;;0.40;0.40;;;;;;;6.73;60.92;97952.50;4984677;28;20058;-61
2024/01/24 09:08:01;;;;;;;0.40;0.40;;;;;;;7.15;60.15;98029.63;4981418;28;20060;-60
2024/01/24 09:10:28;;;;;;;0.40;0.40;;;;;;;7.44;60.66;98051.84;4984218;28;20169;-59
2024/01/24 09:12:55;;;;;;;0.40;0.40;;;;;;;7.02;60.32;97978.25;4984332;28;20157;-62
2024/01/24 09:15:22;;;;;;;0.35;0.35;;;;;;;7.80;59.50;98036.84;4975707;28;20054;-61
2024/01/24 09:17:50;;;;;;;0.40;0.40;;;;;;;7.53;58.59;98011.28;4984742;28;20497;-60
2024/01/24 09:20:17;;;;;;;0.40;0.40;;;;;;;7.77;57.72;98043.03;4984881;28;20723;-61
2024/01/24 09:22:45;;;;;;;0.40;0.40;;;;;;;7.67;57.94;98039.47;4983911;28;20050;-59
2024/01/24 09:25:12;;;;;;;0.40;0.40;;;;;;;7.64;57.83;98040.13;4984283;28;20437;-63
2024/01/24 09:27:40;;;;;;;0.40;0.40;;;;;;;7.61;58.35;98051.00;4984342;28;20046;-61
2024/01/24 09:30:08;;;;;;;0.30;0.30;;;;;;;7.74;58.90;98050.03;4984298;28;20053;-62
2024/01/24 09:32:34;;;;;;;0.40;0.40;;;;;;;7.18;59.59;97960.09;4982688;28;20050;-57
2024/01/24 09:35:01;;;;;;;0.30;0.30;;;;;;;7.58;60.09;98035.94;4983849;28;20058;-61
2024/01/24 09:37:29;;;;;;;0.40;0.40;;;;;;;7.59;60.15;98045.81;4982786;28;20047;-61
2024/01/24 09:39:56;;;;;;;0.40;0.40;;;;;;;7.58;60.00;98052.47;4982971;28;20667;-60
2024/01/24 09:42:26;;;;;;;0.40;0.40;;;;;;;7.69;60.48;98042.72;4975991;28;20050;-57
2024/01/24 09:44:57;;;;;;;0.40;0.40;;;;;;;4.07;59.66;97508.03;4984202;28;20124;-58
2024/01/24 09:47:25;;;;;;;0.40;0.40;;;;;;;7.27;59.34;97952.63;4982841;28;20046;-62
2024/01/24 09:49:53;;;;;;;0.40;0.40;;;;;;;7.86;58.88;98030.03;4970988;28;20097;-58
2024/01/24 09:52:26;;;;;;;0.40;0.40;;;;;;;7.85;58.92;98033.94;4983900;28;20714;-62
2024/01/24 09:54:57;;;;;;;0.40;0.40;;;;;;;7.85;58.48;98028.41;4982739;28;20062;-59
2024/01/24 09:57:26;;;;;;;0.40;0.40;;;;;;;7.95;58.03;98011.50;4977057;28;20610;-57
2024/01/24 09:59:54;;;;;;;0.40;0.40;;;;;;;7.93;58.00;98013.78;4979927;28;20049;-61
2024/01/24 10:02:21;;;;;;;0.40;0.40;;;;;;;7.84;57.67;97966.13;4980969;28;20050;-61
2024/01/24 10:04:50;;;;;;;0.40;0.40;;;;;;;8.43;57.26;98006.44;4983741;28;20096;-61
2024/01/24 10:07:19;;;;;;;0.40;0.40;;;;;;;8.51;57.03;97989.84;4983979;28;20054;-61
2024/01/24 10:09:46;;;;;;;0.40;0.40;;;;;;;8.67;56.93;97990.06;4983354;28;20137;-61
2024/01/24 10:12:13;;;;;;;0.40;0.40;;;;;;;8.74;55.96;97979.31;4981158;28;20066;-59
2024/01/24 10:14:43;;;;;;;0.40;0.40;;;;;;;8.74;56.05;97977.34;4983774;28;20151;-60
2024/01/24 10:17:11;;;;;;;0.40;0.40;;;;;;;8.60;56.93;97967.72;4983542;28;20369;-60
2024/01/24 10:19:38;;;;;;;0.40;0.40;;;;;;;7.67;57.56;97879.56;4981917;28;20058;-61
2024/01/24 10:22:08;;;;;;;0.40;0.40;;;;;;;8.11;58.55;97976.72;4983462;28;20050;-60
2024/01/24 10:24:36;;;;;;;0.40;0.40;;;;;;;8.30;57.85;97957.84;4983885;28;20391;-59
2024/01/24 10:27:04;;;;;;;0.40;0.40;;;;;;;8.23;58.02;97946.50;4981726;28;20136;-60
2024/01/24 10:29:31;;;;;;;0.40;0.40;;;;;;;8.02;58.21;97948.34;4984155;28;20053;-60
2024/01/24 10:31:58;;;;;;;0.40;0.40;;;;;;;7.83;58.52;97921.16;4983912;28;20106;-59
2024/01/24 10:34:27;;;;;;;0.40;0.40;;;;;;;8.04;57.75;97943.31;4984223;28;20065;-57
2024/01/24 10:36:55;;;;;;;0.40;0.40;;;;;;;7.54;57.70;97864.03;4984272;28;20130;-59
2024/01/24 10:39:25;;;;;;;0.40;0.40;;;;;;;7.55;58.24;97876.69;4982956;28;20065;-60
2024/01/24 10:41:54;;;;;;;0.40;0.40;;;;;;;7.76;58.24;97928.34;4983700;28;20054;-57
2024/01/24 10:44:25;;;;;;;0.40;0.40;;;;;;;7.93;59.00;97939.31;4983112;28;20145;-59
2024/01/24 10:46:52;;;;;;;0.40;0.40;;;;;;;8.29;57.65;97925.81;4983465;28;20105;-58
2024/01/24 10:49:23;;;;;;;0.40;0.40;;;;;;;8.67;57.34;97923.78;4980893;28;20061;-60
2024/01/24 10:51:50;;;;;;;0.40;0.40;;;;;;;8.78;56.04;97867.00;4979543;28;20440;-61
2024/01/24 10:54:19;;;;;;;0.40;0.40;;;;;;;9.34;56.10;97898.63;4983237;28;20490;-59
2024/01/24 10:56:49;;;;;;;0.40;0.40;;;;;;;9.63;53.36;97907.56;4979385;28;20223;-58
2024/01/24 10:59:20;;;;;;;0.40;0.40;;;;;;;9.46;52.59;97874.59;4969073;28;20084;-59
2024/01/24 11:01:47;;;;;;;0.40;0.40;;;;;;;9.63;52.70;97857.78;4977128;28;20486;-61
2024/01/24 11:04:22;;;;;;;0.43;0.43;;;;;;;10.19;50.79;97903.97;4982659;28;20333;-60
2024/01/24 11:07:06;;;;;;;0.40;0.40;;;;;;;9.99;51.73;97845.94;4966776;28;20051;-58
2024/01/24 11:09:53;;;;;;;0.50;0.50;;;;;;;10.57;51.20;97898.03;4968844;28;20058;-58
2024/01/24 11:12:21;;;;;;;0.40;0.40;;;;;;;10.77;50.55;97891.50;4982836;28;20073;-57
2024/01/24 11:14:48;;;;;;;0.40;0.40;;;;;;;10.33;48.92;97818.56;4982256;28;20552;-57
2024/01/24 11:17:16;;;;;;;0.40;0.40;;;;;;;10.69;48.80;97896.03;4984389;28;20053;-59
2024/01/24 11:19:42;;;;;;;0.50;0.50;;;;;;;10.73;49.35;97895.34;4982906;28;20050;-63
2024/01/24 11:22:11;;;;;;;0.50;0.50;;;;;;;10.75;48.43;97895.81;4982976;28;20061;-59
2024/01/24 11:24:52;;;;;;;0.40;0.40;;;;;;;10.36;48.74;97837.25;4981754;28;20062;-57
2024/01/24 11:27:41;;;;;;;0.40;0.40;;;;;;;10.58;49.56;97869.97;4982226;28;20053;-61
2024/01/24 11:30:17;;;;;;;0.47;0.47;;;;;;;10.58;49.81;97872.75;4983158;28;20050;-61
2024/01/24 11:32:46;;;;;;;0.40;0.40;;;;;;;10.31;49.07;97884.56;4983293;28;20125;-58
2024/01/24 11:35:32;;;;;;;0.43;0.43;;;;;;;10.42;50.14;97874.63;4985976;28;20054;-57
2024/01/24 11:38:05;;;;;;;0.50;0.50;;;;;;;10.55;49.33;97880.94;4987325;28;20047;-59